BAW544K EGLL-LIPE
Flight info
| Callsign | BAW544K |
|---|---|
| Flight time | 1h 44m |
| Altitude | 37000 |
| Route | DET L6 DVR UL9 KONAN DCT KOK DCT SISGA DCT RITAX DCT KRH DCT TEDGO DCT BATUB DCT TIRUL M738 NATAG DCT LORLO DCT RENTA DCT UNTAD DCT NEGIK DCT ADOSA M738 BENUS |
| Aircraft | A320/M-SDE3FGHIRWY/LB1 |
Departure
| Time | 2026-05-06 19:37 |
|---|---|
| Airport | London Heathrow Airport (EGLL) |
Arrival
| Time | 2026-05-06 21:22 |
|---|---|
| Airport | Bologna Guglielmo Marconi Airport (LIPE) |
| Time | Latitude | Longitude | Altitude | Speed | Heading |
|---|---|---|---|---|---|
| 2026-05-06 19:03 | 51.47233 | -0.48585 | 86 ft | 0 kts | 270° |
| 2026-05-06 19:28 | 51.47233 | -0.48583 | 89 ft | 2 kts | 270° |
| 2026-05-06 19:28 | 51.47233 | -0.48546 | 88 ft | 3 kts | 266° |
| 2026-05-06 19:28 | 51.47236 | -0.48508 | 91 ft | 3 kts | 251° |
| 2026-05-06 19:28 | 51.47246 | -0.48478 | 90 ft | 3 kts | 203° |
| 2026-05-06 19:29 | 51.47254 | -0.48474 | 90 ft | 0 kts | 180° |
| 2026-05-06 19:33 | 51.47248 | -0.48474 | 90 ft | 2 kts | 180° |
| 2026-05-06 19:34 | 51.47225 | -0.48473 | 88 ft | 5 kts | 178° |
| 2026-05-06 19:34 | 51.47176 | -0.48472 | 88 ft | 8 kts | 179° |
| 2026-05-06 19:34 | 51.47114 | -0.48472 | 88 ft | 10 kts | 180° |
| 2026-05-06 19:34 | 51.47040 | -0.48471 | 86 ft | 11 kts | 179° |
| 2026-05-06 19:35 | 51.46954 | -0.48470 | 88 ft | 13 kts | 179° |
| 2026-05-06 19:35 | 51.46856 | -0.48469 | 86 ft | 15 kts | 181° |
| 2026-05-06 19:35 | 51.46753 | -0.48469 | 86 ft | 15 kts | 179° |
| 2026-05-06 19:35 | 51.46641 | -0.48468 | 86 ft | 17 kts | 180° |
| 2026-05-06 19:36 | 51.46532 | -0.48467 | 86 ft | 16 kts | 180° |
| 2026-05-06 19:36 | 51.46479 | -0.48403 | 87 ft | 11 kts | 96° |
| 2026-05-06 19:36 | 51.46481 | -0.48258 | 89 ft | 26 kts | 89° |
| 2026-05-06 19:36 | 51.46482 | -0.47586 | 85 ft | 92 kts | 89° |
| 2026-05-06 19:37 | 51.46490 | -0.46298 | 88 ft | 140 kts | 89° |
| 2026-05-06 19:37 | 51.46460 | -0.44592 | 370 ft | 153 kts | 89° |
| 2026-05-06 19:37 | 51.46463 | -0.42850 | 911 ft | 158 kts | 86° |
| 2026-05-06 19:37 | 51.46192 | -0.41070 | 1309 ft | 177 kts | 122° |
| 2026-05-06 19:38 | 51.45437 | -0.39399 | 1531 ft | 196 kts | 120° |
| 2026-05-06 19:38 | 51.44666 | -0.37381 | 1599 ft | 230 kts | 117° |
| 2026-05-06 19:38 | 51.43856 | -0.34924 | 1833 ft | 258 kts | 109° |
| 2026-05-06 19:38 | 51.43368 | -0.32159 | 2719 ft | 258 kts | 101° |
| 2026-05-06 19:39 | 51.42945 | -0.29384 | 3608 ft | 260 kts | 101° |
| 2026-05-06 19:39 | 51.42527 | -0.26545 | 4477 ft | 264 kts | 101° |
| 2026-05-06 19:39 | 51.42120 | -0.23649 | 5293 ft | 268 kts | 101° |
| 2026-05-06 19:39 | 51.41716 | -0.20698 | 5851 ft | 275 kts | 100° |
| 2026-05-06 19:40 | 51.41308 | -0.17697 | 5979 ft | 275 kts | 101° |
| 2026-05-06 19:40 | 51.40903 | -0.14701 | 5998 ft | 274 kts | 101° |
| 2026-05-06 19:40 | 51.40499 | -0.11721 | 5998 ft | 274 kts | 101° |
| 2026-05-06 19:40 | 51.40090 | -0.08735 | 5996 ft | 275 kts | 101° |
| 2026-05-06 19:41 | 51.39677 | -0.05750 | 5997 ft | 275 kts | 101° |
| 2026-05-06 19:41 | 51.39262 | -0.02767 | 5994 ft | 274 kts | 101° |
| 2026-05-06 19:41 | 51.38845 | 0.00224 | 6299 ft | 276 kts | 102° |
| 2026-05-06 19:41 | 51.38428 | 0.03205 | 7220 ft | 274 kts | 102° |
| 2026-05-06 19:42 | 51.38008 | 0.06208 | 7973 ft | 279 kts | 102° |
| 2026-05-06 19:42 | 51.37580 | 0.09289 | 8698 ft | 285 kts | 102° |
| 2026-05-06 19:42 | 51.37148 | 0.12382 | 9409 ft | 291 kts | 102° |
| 2026-05-06 19:42 | 51.36704 | 0.15562 | 10106 ft | 296 kts | 102° |
| 2026-05-06 19:43 | 51.36239 | 0.18874 | 10396 ft | 316 kts | 102° |
| 2026-05-06 19:43 | 51.35742 | 0.22434 | 10546 ft | 339 kts | 102° |
| 2026-05-06 19:43 | 51.35215 | 0.26184 | 11000 ft | 348 kts | 102° |
| 2026-05-06 19:43 | 51.34675 | 0.29992 | 11607 ft | 353 kts | 102° |
| 2026-05-06 19:44 | 51.34128 | 0.33838 | 12244 ft | 356 kts | 102° |
| 2026-05-06 19:44 | 51.33578 | 0.37674 | 12875 ft | 360 kts | 102° |
| 2026-05-06 19:44 | 51.33013 | 0.41586 | 13537 ft | 362 kts | 102° |
| 2026-05-06 19:44 | 51.32444 | 0.45538 | 14110 ft | 366 kts | 102° |
| 2026-05-06 19:45 | 51.31873 | 0.49520 | 14677 ft | 369 kts | 102° |
| 2026-05-06 19:45 | 51.31296 | 0.53530 | 15244 ft | 372 kts | 102° |
| 2026-05-06 19:45 | 51.30713 | 0.57576 | 15797 ft | 375 kts | 103° |
| 2026-05-06 19:45 | 51.30101 | 0.61654 | 16347 ft | 378 kts | 104° |
| 2026-05-06 19:46 | 51.29408 | 0.65725 | 16894 ft | 381 kts | 105° |
| 2026-05-06 19:46 | 51.28657 | 0.69811 | 17453 ft | 385 kts | 107° |
| 2026-05-06 19:46 | 51.27878 | 0.73914 | 18014 ft | 388 kts | 107° |
| 2026-05-06 19:46 | 51.27085 | 0.78065 | 18543 ft | 392 kts | 107° |
| 2026-05-06 19:47 | 51.26293 | 0.82240 | 19054 ft | 395 kts | 107° |
| 2026-05-06 19:47 | 51.25503 | 0.86449 | 19578 ft | 398 kts | 107° |
| 2026-05-06 19:47 | 51.24712 | 0.90707 | 20109 ft | 400 kts | 107° |
| 2026-05-06 19:47 | 51.23932 | 0.94934 | 20636 ft | 403 kts | 107° |
| 2026-05-06 19:48 | 51.23137 | 0.99244 | 21145 ft | 406 kts | 107° |
| 2026-05-06 19:48 | 51.22336 | 1.03582 | 21641 ft | 409 kts | 107° |
| 2026-05-06 19:48 | 51.21527 | 1.07944 | 22122 ft | 412 kts | 107° |
| 2026-05-06 19:48 | 51.20705 | 1.12333 | 22592 ft | 415 kts | 107° |
| 2026-05-06 19:49 | 51.19874 | 1.16763 | 23061 ft | 417 kts | 107° |
| 2026-05-06 19:49 | 51.19042 | 1.21208 | 23520 ft | 420 kts | 107° |
| 2026-05-06 19:49 | 51.18202 | 1.25681 | 23900 ft | 422 kts | 107° |
| 2026-05-06 19:49 | 51.17354 | 1.30169 | 24277 ft | 425 kts | 107° |
| 2026-05-06 19:50 | 51.16536 | 1.34715 | 24641 ft | 427 kts | 103° |
| 2026-05-06 19:50 | 51.16094 | 1.39402 | 25003 ft | 429 kts | 94° |
| 2026-05-06 19:50 | 51.15876 | 1.44161 | 25363 ft | 431 kts | 94° |
| 2026-05-06 19:50 | 51.15654 | 1.48943 | 25716 ft | 433 kts | 94° |
| 2026-05-06 19:51 | 51.15422 | 1.53733 | 26056 ft | 436 kts | 95° |
| 2026-05-06 19:51 | 51.15183 | 1.58561 | 26406 ft | 438 kts | 95° |
| 2026-05-06 19:51 | 51.14941 | 1.63401 | 26740 ft | 440 kts | 95° |
| 2026-05-06 19:51 | 51.14701 | 1.68216 | 27068 ft | 442 kts | 95° |
| 2026-05-06 19:52 | 51.14456 | 1.73109 | 27409 ft | 444 kts | 95° |
| 2026-05-06 19:52 | 51.14208 | 1.78016 | 27736 ft | 446 kts | 95° |
| 2026-05-06 19:52 | 51.13957 | 1.82948 | 28065 ft | 448 kts | 95° |
| 2026-05-06 19:52 | 51.13703 | 1.87898 | 28398 ft | 450 kts | 95° |
| 2026-05-06 19:53 | 51.13446 | 1.92870 | 28712 ft | 452 kts | 95° |
| 2026-05-06 19:53 | 51.13184 | 1.97881 | 29044 ft | 453 kts | 95° |
| 2026-05-06 19:53 | 51.12921 | 2.02889 | 29499 ft | 452 kts | 95° |
| 2026-05-06 19:53 | 51.12661 | 2.07869 | 29957 ft | 451 kts | 95° |
| 2026-05-06 19:54 | 51.12401 | 2.12840 | 30353 ft | 450 kts | 95° |
| 2026-05-06 19:54 | 51.12139 | 2.17799 | 30736 ft | 449 kts | 95° |
| 2026-05-06 19:54 | 51.11876 | 2.22690 | 31132 ft | 448 kts | 95° |
| 2026-05-06 19:54 | 51.11606 | 2.27639 | 31529 ft | 447 kts | 95° |
| 2026-05-06 19:55 | 51.11332 | 2.32564 | 31925 ft | 446 kts | 95° |
| 2026-05-06 19:55 | 51.11056 | 2.37472 | 32328 ft | 445 kts | 95° |
| 2026-05-06 19:55 | 51.10776 | 2.42372 | 32750 ft | 444 kts | 95° |
| 2026-05-06 19:55 | 51.10499 | 2.47254 | 33155 ft | 443 kts | 95° |
| 2026-05-06 19:56 | 51.10223 | 2.52136 | 33565 ft | 441 kts | 95° |
| 2026-05-06 19:56 | 51.09948 | 2.57002 | 33963 ft | 440 kts | 94° |
| 2026-05-06 19:56 | 51.09591 | 2.61835 | 34268 ft | 440 kts | 101° |
| 2026-05-06 19:56 | 51.08808 | 2.66535 | 34534 ft | 440 kts | 110° |
| 2026-05-06 19:57 | 51.07572 | 2.70983 | 34777 ft | 440 kts | 118° |
| 2026-05-06 19:57 | 51.06132 | 2.75294 | 35006 ft | 441 kts | 118° |
| 2026-05-06 19:57 | 51.04693 | 2.79606 | 35255 ft | 441 kts | 118° |
| 2026-05-06 19:57 | 51.03257 | 2.83919 | 35498 ft | 442 kts | 118° |
| 2026-05-06 19:58 | 51.01826 | 2.88232 | 35760 ft | 441 kts | 118° |
| 2026-05-06 19:58 | 51.00393 | 2.92552 | 36013 ft | 441 kts | 118° |
| 2026-05-06 19:58 | 50.98962 | 2.96850 | 36240 ft | 441 kts | 118° |
| 2026-05-06 19:58 | 50.97522 | 3.01149 | 36462 ft | 441 kts | 119° |
| 2026-05-06 19:59 | 50.96075 | 3.05455 | 36675 ft | 441 kts | 119° |
| 2026-05-06 19:59 | 50.94631 | 3.09756 | 36878 ft | 442 kts | 119° |
| 2026-05-06 19:59 | 50.91719 | 3.18410 | 36964 ft | 449 kts | 119° |
| 2026-05-06 20:00 | 50.88769 | 3.27154 | 36961 ft | 454 kts | 119° |
| 2026-05-06 20:00 | 50.85788 | 3.35975 | 36960 ft | 454 kts | 119° |
| 2026-05-06 20:01 | 50.82791 | 3.44791 | 36956 ft | 454 kts | 119° |
| 2026-05-06 20:01 | 50.79790 | 3.53581 | 36954 ft | 454 kts | 119° |
| 2026-05-06 20:02 | 50.76777 | 3.62374 | 36959 ft | 455 kts | 119° |
| 2026-05-06 20:02 | 50.73758 | 3.71173 | 36963 ft | 455 kts | 119° |
| 2026-05-06 20:03 | 50.71150 | 3.78756 | 36958 ft | 455 kts | 120° |
| 2026-05-06 20:03 | 50.68674 | 3.85917 | 36961 ft | 455 kts | 120° |
| 2026-05-06 20:04 | 50.65631 | 3.94677 | 36964 ft | 455 kts | 120° |
| 2026-05-06 20:04 | 50.62579 | 4.03423 | 36965 ft | 455 kts | 120° |
| 2026-05-06 20:05 | 50.59657 | 4.12272 | 36957 ft | 456 kts | 116° |
| 2026-05-06 20:05 | 50.57013 | 4.21345 | 36954 ft | 456 kts | 115° |
| 2026-05-06 20:06 | 50.54394 | 4.30435 | 36960 ft | 456 kts | 116° |
| 2026-05-06 20:06 | 50.51702 | 4.39471 | 36962 ft | 456 kts | 116° |
| 2026-05-06 20:07 | 50.48965 | 4.48458 | 36963 ft | 456 kts | 116° |
| 2026-05-06 20:07 | 50.46226 | 4.57442 | 36964 ft | 456 kts | 116° |
| 2026-05-06 20:08 | 50.43493 | 4.66419 | 36961 ft | 456 kts | 116° |
| 2026-05-06 20:08 | 50.40766 | 4.75342 | 36952 ft | 456 kts | 117° |
| 2026-05-06 20:09 | 50.38014 | 4.84296 | 36953 ft | 456 kts | 117° |
| 2026-05-06 20:09 | 50.35252 | 4.93250 | 36954 ft | 456 kts | 117° |
| 2026-05-06 20:10 | 50.32484 | 5.02186 | 36950 ft | 456 kts | 117° |
| 2026-05-06 20:10 | 50.29710 | 5.11108 | 36944 ft | 456 kts | 117° |
| 2026-05-06 20:11 | 50.26953 | 5.19979 | 36946 ft | 456 kts | 117° |
| 2026-05-06 20:11 | 50.24175 | 5.28879 | 36948 ft | 455 kts | 117° |
| 2026-05-06 20:12 | 50.21390 | 5.37771 | 36948 ft | 455 kts | 117° |
| 2026-05-06 20:12 | 50.18594 | 5.46642 | 36946 ft | 455 kts | 117° |
| 2026-05-06 20:13 | 50.15796 | 5.55503 | 36937 ft | 455 kts | 118° |
| 2026-05-06 20:13 | 50.12990 | 5.64355 | 36943 ft | 455 kts | 118° |
| 2026-05-06 20:14 | 50.10173 | 5.73191 | 36933 ft | 455 kts | 118° |
| 2026-05-06 20:14 | 50.07335 | 5.82005 | 36930 ft | 455 kts | 119° |
| 2026-05-06 20:15 | 50.04256 | 5.90597 | 36925 ft | 454 kts | 122° |
| 2026-05-06 20:15 | 50.01037 | 5.98992 | 36922 ft | 454 kts | 123° |
| 2026-05-06 20:16 | 49.97817 | 6.07417 | 36922 ft | 453 kts | 122° |
| 2026-05-06 20:16 | 49.94636 | 6.15882 | 36920 ft | 453 kts | 122° |
| 2026-05-06 20:17 | 49.91474 | 6.24338 | 36911 ft | 453 kts | 122° |
| 2026-05-06 20:17 | 49.88298 | 6.32781 | 36911 ft | 453 kts | 122° |
| 2026-05-06 20:18 | 49.85131 | 6.41153 | 36884 ft | 452 kts | 122° |
| 2026-05-06 20:18 | 49.81943 | 6.49554 | 36896 ft | 452 kts | 122° |
| 2026-05-06 20:19 | 49.79272 | 6.56574 | 36879 ft | 452 kts | 122° |
| 2026-05-06 20:19 | 49.76094 | 6.64894 | 36884 ft | 451 kts | 122° |
| 2026-05-06 20:20 | 49.72892 | 6.73250 | 36878 ft | 451 kts | 122° |
| 2026-05-06 20:20 | 49.69687 | 6.81590 | 36867 ft | 451 kts | 123° |
| 2026-05-06 20:21 | 49.66473 | 6.89944 | 36880 ft | 452 kts | 123° |
| 2026-05-06 20:21 | 49.63260 | 6.98271 | 36883 ft | 452 kts | 123° |
| 2026-05-06 20:22 | 49.60030 | 7.06588 | 36890 ft | 452 kts | 123° |
| 2026-05-06 20:22 | 49.56810 | 7.14851 | 36891 ft | 452 kts | 123° |
| 2026-05-06 20:23 | 49.53569 | 7.23147 | 36877 ft | 452 kts | 123° |
| 2026-05-06 20:23 | 49.50325 | 7.31425 | 36878 ft | 452 kts | 123° |
| 2026-05-06 20:24 | 49.47072 | 7.39691 | 36878 ft | 452 kts | 123° |
| 2026-05-06 20:24 | 49.43815 | 7.47966 | 36884 ft | 452 kts | 123° |
| 2026-05-06 20:25 | 49.40556 | 7.56230 | 36867 ft | 452 kts | 123° |
| 2026-05-06 20:25 | 49.37285 | 7.64473 | 36855 ft | 452 kts | 124° |
| 2026-05-06 20:26 | 49.34011 | 7.72693 | 36879 ft | 452 kts | 124° |
| 2026-05-06 20:26 | 49.30735 | 7.80904 | 36874 ft | 451 kts | 124° |
| 2026-05-06 20:27 | 49.27469 | 7.89061 | 36876 ft | 451 kts | 124° |
| 2026-05-06 20:27 | 49.24179 | 7.97245 | 36878 ft | 451 kts | 124° |
| 2026-05-06 20:28 | 49.20884 | 8.05422 | 36860 ft | 451 kts | 124° |
| 2026-05-06 20:28 | 49.17594 | 8.13587 | 36871 ft | 451 kts | 124° |
| 2026-05-06 20:29 | 49.14298 | 8.21732 | 36872 ft | 449 kts | 125° |
| 2026-05-06 20:29 | 49.12394 | 8.25398 | 36851 ft | 434 kts | 141° |
| 2026-05-06 20:29 | 49.10058 | 8.28263 | 36863 ft | 429 kts | 147° |
| 2026-05-06 20:30 | 49.02718 | 8.36175 | 36870 ft | 437 kts | 145° |
| 2026-05-06 20:31 | 48.97970 | 8.42046 | 36871 ft | 442 kts | 143° |
| 2026-05-06 20:31 | 48.93230 | 8.48029 | 36872 ft | 442 kts | 143° |
| 2026-05-06 20:32 | 48.88470 | 8.53882 | 36869 ft | 443 kts | 144° |
| 2026-05-06 20:32 | 48.83640 | 8.59707 | 36878 ft | 443 kts | 144° |
| 2026-05-06 20:33 | 48.78803 | 8.65502 | 36881 ft | 443 kts | 144° |
| 2026-05-06 20:33 | 48.73966 | 8.71308 | 36894 ft | 443 kts | 144° |
| 2026-05-06 20:34 | 48.69167 | 8.77079 | 36889 ft | 442 kts | 144° |
| 2026-05-06 20:34 | 48.64341 | 8.82869 | 36902 ft | 442 kts | 144° |
| 2026-05-06 20:35 | 48.59522 | 8.88633 | 36906 ft | 441 kts | 144° |
| 2026-05-06 20:35 | 48.54705 | 8.94374 | 36909 ft | 441 kts | 145° |
| 2026-05-06 20:36 | 48.49883 | 9.00097 | 36905 ft | 441 kts | 145° |
| 2026-05-06 20:36 | 48.45068 | 9.05813 | 36911 ft | 440 kts | 145° |
| 2026-05-06 20:37 | 48.40258 | 9.11514 | 36896 ft | 440 kts | 145° |
| 2026-05-06 20:37 | 48.35445 | 9.17195 | 36917 ft | 439 kts | 145° |
| 2026-05-06 20:38 | 48.30631 | 9.22853 | 36920 ft | 439 kts | 145° |
| 2026-05-06 20:38 | 48.25845 | 9.28471 | 36919 ft | 439 kts | 145° |
| 2026-05-06 20:39 | 48.21029 | 9.34122 | 36924 ft | 439 kts | 145° |
| 2026-05-06 20:39 | 48.16218 | 9.39749 | 36929 ft | 439 kts | 146° |
| 2026-05-06 20:40 | 48.11386 | 9.45374 | 36909 ft | 439 kts | 146° |
| 2026-05-06 20:40 | 48.06565 | 9.50981 | 36936 ft | 438 kts | 146° |
| 2026-05-06 20:41 | 48.01774 | 9.56532 | 36934 ft | 437 kts | 147° |
| 2026-05-06 20:41 | 47.96839 | 9.61807 | 36938 ft | 436 kts | 149° |
| 2026-05-06 20:42 | 47.91793 | 9.66839 | 36941 ft | 435 kts | 150° |
| 2026-05-06 20:42 | 47.86764 | 9.71844 | 36936 ft | 435 kts | 149° |
| 2026-05-06 20:43 | 47.81787 | 9.76898 | 36912 ft | 435 kts | 149° |
| 2026-05-06 20:43 | 47.76766 | 9.82031 | 36936 ft | 435 kts | 149° |
| 2026-05-06 20:44 | 47.71799 | 9.87076 | 36944 ft | 435 kts | 150° |
| 2026-05-06 20:44 | 47.66791 | 9.92135 | 36948 ft | 435 kts | 150° |
| 2026-05-06 20:45 | 47.61776 | 9.97183 | 36951 ft | 434 kts | 150° |
| 2026-05-06 20:45 | 47.56767 | 10.02207 | 36950 ft | 434 kts | 150° |
| 2026-05-06 20:46 | 47.51794 | 10.07197 | 36920 ft | 435 kts | 150° |
| 2026-05-06 20:46 | 47.46780 | 10.12213 | 36942 ft | 435 kts | 150° |
| 2026-05-06 20:47 | 47.41762 | 10.17222 | 36952 ft | 435 kts | 150° |
| 2026-05-06 20:47 | 47.36745 | 10.22216 | 36951 ft | 434 kts | 150° |
| 2026-05-06 20:48 | 47.31726 | 10.27207 | 36942 ft | 435 kts | 150° |
| 2026-05-06 20:48 | 47.26700 | 10.32198 | 36926 ft | 436 kts | 150° |
| 2026-05-06 20:49 | 47.23423 | 10.35434 | 36921 ft | 436 kts | 150° |
| 2026-05-06 20:49 | 47.18375 | 10.40408 | 36903 ft | 436 kts | 150° |
| 2026-05-06 20:50 | 47.13338 | 10.45378 | 36915 ft | 436 kts | 150° |
| 2026-05-06 20:50 | 47.08297 | 10.50340 | 36910 ft | 436 kts | 151° |
| 2026-05-06 20:51 | 47.02905 | 10.54143 | 36912 ft | 426 kts | 167° |
| 2026-05-06 20:51 | 46.97235 | 10.56681 | 36918 ft | 427 kts | 167° |
| 2026-05-06 20:52 | 46.91558 | 10.59268 | 36921 ft | 427 kts | 167° |
| 2026-05-06 20:52 | 46.85903 | 10.61839 | 36921 ft | 428 kts | 167° |
| 2026-05-06 20:53 | 46.80208 | 10.64405 | 36907 ft | 427 kts | 167° |
| 2026-05-06 20:53 | 46.74524 | 10.66942 | 36941 ft | 427 kts | 167° |
| 2026-05-06 20:54 | 46.68868 | 10.69482 | 36955 ft | 426 kts | 167° |
| 2026-05-06 20:54 | 46.63193 | 10.72003 | 36968 ft | 427 kts | 168° |
| 2026-05-06 20:55 | 46.57508 | 10.74511 | 36970 ft | 426 kts | 168° |
| 2026-05-06 20:55 | 46.51834 | 10.76999 | 36970 ft | 426 kts | 168° |
| 2026-05-06 20:56 | 46.46184 | 10.79483 | 36967 ft | 426 kts | 168° |
| 2026-05-06 20:56 | 46.40504 | 10.81991 | 36981 ft | 427 kts | 168° |
| 2026-05-06 20:57 | 46.34813 | 10.84498 | 37003 ft | 427 kts | 168° |
| 2026-05-06 20:57 | 46.29026 | 10.85745 | 36965 ft | 416 kts | 186° |
| 2026-05-06 20:58 | 46.23323 | 10.84744 | 36976 ft | 414 kts | 186° |
| 2026-05-06 20:58 | 46.17587 | 10.85692 | 36981 ft | 423 kts | 172° |
| 2026-05-06 20:58 | 46.14718 | 10.86628 | 36741 ft | 422 kts | 172° |
| 2026-05-06 20:59 | 46.11852 | 10.87554 | 36473 ft | 421 kts | 173° |
| 2026-05-06 20:59 | 46.08998 | 10.88469 | 36223 ft | 420 kts | 173° |
| 2026-05-06 20:59 | 46.06151 | 10.89379 | 35972 ft | 418 kts | 173° |
| 2026-05-06 20:59 | 46.03316 | 10.90283 | 35609 ft | 416 kts | 173° |
| 2026-05-06 21:00 | 46.00488 | 10.91187 | 34968 ft | 416 kts | 174° |
| 2026-05-06 21:00 | 45.97662 | 10.92090 | 34254 ft | 417 kts | 174° |
| 2026-05-06 21:00 | 45.94826 | 10.92998 | 33391 ft | 418 kts | 175° |
| 2026-05-06 21:00 | 45.92002 | 10.93901 | 32852 ft | 411 kts | 175° |
| 2026-05-06 21:01 | 45.89234 | 10.94789 | 32397 ft | 405 kts | 175° |
| 2026-05-06 21:01 | 45.86495 | 10.95661 | 31900 ft | 400 kts | 175° |
| 2026-05-06 21:01 | 45.83789 | 10.96522 | 31396 ft | 396 kts | 175° |
| 2026-05-06 21:01 | 45.81122 | 10.97372 | 30926 ft | 390 kts | 175° |
| 2026-05-06 21:02 | 45.78482 | 10.98211 | 30409 ft | 386 kts | 175° |
| 2026-05-06 21:02 | 45.75905 | 10.99028 | 29914 ft | 382 kts | 176° |
| 2026-05-06 21:02 | 45.73316 | 10.99845 | 29386 ft | 377 kts | 176° |
| 2026-05-06 21:02 | 45.70765 | 11.00648 | 28880 ft | 373 kts | 175° |
| 2026-05-06 21:03 | 45.68245 | 11.01443 | 28412 ft | 369 kts | 175° |
| 2026-05-06 21:03 | 45.65755 | 11.02233 | 27933 ft | 364 kts | 175° |
| 2026-05-06 21:03 | 45.63288 | 11.02993 | 27471 ft | 360 kts | 176° |
| 2026-05-06 21:03 | 45.60839 | 11.03647 | 27036 ft | 357 kts | 177° |
| 2026-05-06 21:04 | 45.58399 | 11.04230 | 26590 ft | 354 kts | 178° |
| 2026-05-06 21:04 | 45.56790 | 11.04595 | 26310 ft | 352 kts | 178° |
| 2026-05-06 21:04 | 45.54379 | 11.05138 | 25887 ft | 351 kts | 178° |
| 2026-05-06 21:04 | 45.51966 | 11.05688 | 25464 ft | 350 kts | 178° |
| 2026-05-06 21:05 | 45.49564 | 11.06250 | 25056 ft | 349 kts | 177° |
| 2026-05-06 21:05 | 45.47168 | 11.06822 | 24649 ft | 349 kts | 177° |
| 2026-05-06 21:05 | 45.44779 | 11.07400 | 24242 ft | 348 kts | 176° |
| 2026-05-06 21:05 | 45.42397 | 11.07978 | 23827 ft | 347 kts | 176° |
| 2026-05-06 21:06 | 45.40021 | 11.08556 | 23412 ft | 346 kts | 176° |
| 2026-05-06 21:06 | 45.37657 | 11.09130 | 22963 ft | 343 kts | 176° |
| 2026-05-06 21:06 | 45.35319 | 11.09697 | 22542 ft | 340 kts | 176° |
| 2026-05-06 21:06 | 45.32992 | 11.10256 | 22126 ft | 336 kts | 176° |
| 2026-05-06 21:07 | 45.30695 | 11.10804 | 21702 ft | 333 kts | 176° |
| 2026-05-06 21:07 | 45.28415 | 11.11350 | 21284 ft | 330 kts | 176° |
| 2026-05-06 21:07 | 45.26156 | 11.11893 | 20854 ft | 328 kts | 176° |
| 2026-05-06 21:07 | 45.23909 | 11.12434 | 20426 ft | 326 kts | 176° |
| 2026-05-06 21:08 | 45.21702 | 11.12963 | 19995 ft | 324 kts | 176° |
| 2026-05-06 21:08 | 45.19478 | 11.13498 | 19565 ft | 323 kts | 176° |
| 2026-05-06 21:08 | 45.17276 | 11.14029 | 19284 ft | 317 kts | 176° |
| 2026-05-06 21:08 | 45.15102 | 11.14552 | 18708 ft | 321 kts | 176° |
| 2026-05-06 21:09 | 45.12876 | 11.15080 | 18129 ft | 325 kts | 175° |
| 2026-05-06 21:09 | 45.10653 | 11.15609 | 17663 ft | 323 kts | 175° |
| 2026-05-06 21:09 | 45.08446 | 11.16135 | 17248 ft | 319 kts | 175° |
| 2026-05-06 21:09 | 45.06262 | 11.16654 | 16830 ft | 316 kts | 175° |
| 2026-05-06 21:10 | 45.04103 | 11.17170 | 16423 ft | 313 kts | 175° |
| 2026-05-06 21:10 | 45.01960 | 11.17683 | 16000 ft | 311 kts | 174° |
| 2026-05-06 21:10 | 44.99831 | 11.18191 | 15590 ft | 309 kts | 174° |
| 2026-05-06 21:10 | 44.97722 | 11.18692 | 15191 ft | 307 kts | 174° |
| 2026-05-06 21:11 | 44.95621 | 11.19192 | 14790 ft | 305 kts | 174° |
| 2026-05-06 21:11 | 44.93556 | 11.19685 | 14399 ft | 304 kts | 174° |
| 2026-05-06 21:11 | 44.91472 | 11.20184 | 13976 ft | 303 kts | 173° |
| 2026-05-06 21:11 | 44.89388 | 11.20678 | 13517 ft | 304 kts | 173° |
| 2026-05-06 21:12 | 44.87305 | 11.21170 | 13070 ft | 303 kts | 173° |
| 2026-05-06 21:12 | 44.85232 | 11.21661 | 12636 ft | 302 kts | 173° |
| 2026-05-06 21:12 | 44.83165 | 11.22150 | 12199 ft | 301 kts | 174° |
| 2026-05-06 21:12 | 44.81097 | 11.22636 | 11765 ft | 300 kts | 174° |
| 2026-05-06 21:13 | 44.79039 | 11.23107 | 11354 ft | 299 kts | 176° |
| 2026-05-06 21:13 | 44.76976 | 11.23122 | 10931 ft | 295 kts | 189° |
| 2026-05-06 21:13 | 44.74976 | 11.22486 | 10443 ft | 295 kts | 199° |
| 2026-05-06 21:13 | 44.73015 | 11.21647 | 10135 ft | 291 kts | 201° |
| 2026-05-06 21:14 | 44.71327 | 11.20305 | 10006 ft | 277 kts | 224° |
| 2026-05-06 21:14 | 44.70242 | 11.18147 | 9867 ft | 268 kts | 248° |
| 2026-05-06 21:14 | 44.69897 | 11.15575 | 9347 ft | 275 kts | 271° |
| 2026-05-06 21:14 | 44.70412 | 11.12951 | 8810 ft | 286 kts | 293° |
| 2026-05-06 21:15 | 44.71321 | 11.10433 | 8227 ft | 291 kts | 293° |
| 2026-05-06 21:15 | 44.72245 | 11.07914 | 7722 ft | 287 kts | 294° |
| 2026-05-06 21:15 | 44.72995 | 11.05400 | 7229 ft | 272 kts | 277° |
| 2026-05-06 21:15 | 44.72944 | 11.02836 | 6741 ft | 258 kts | 252° |
| 2026-05-06 21:16 | 44.72109 | 11.00676 | 6250 ft | 250 kts | 228° |
| 2026-05-06 21:16 | 44.70782 | 10.99140 | 5724 ft | 247 kts | 211° |
| 2026-05-06 21:16 | 44.69196 | 10.98255 | 5230 ft | 246 kts | 194° |
| 2026-05-06 21:16 | 44.67493 | 10.98089 | 4728 ft | 246 kts | 176° |
| 2026-05-06 21:17 | 44.65834 | 10.98661 | 4228 ft | 246 kts | 159° |
| 2026-05-06 21:17 | 44.64394 | 10.99917 | 3907 ft | 245 kts | 142° |
| 2026-05-06 21:17 | 44.63282 | 11.01726 | 3619 ft | 246 kts | 124° |
| 2026-05-06 21:17 | 44.62485 | 11.03864 | 3319 ft | 246 kts | 118° |
| 2026-05-06 21:18 | 44.61736 | 11.05983 | 3031 ft | 244 kts | 118° |
| 2026-05-06 21:18 | 44.60981 | 11.08105 | 2734 ft | 242 kts | 118° |
| 2026-05-06 21:18 | 44.60230 | 11.10209 | 2473 ft | 238 kts | 118° |
| 2026-05-06 21:18 | 44.59508 | 11.12232 | 2425 ft | 224 kts | 118° |
| 2026-05-06 21:19 | 44.58819 | 11.14158 | 2237 ft | 218 kts | 118° |
| 2026-05-06 21:19 | 44.58142 | 11.16050 | 1987 ft | 215 kts | 118° |
| 2026-05-06 21:19 | 44.57478 | 11.17903 | 1712 ft | 210 kts | 118° |
| 2026-05-06 21:19 | 44.56851 | 11.19654 | 1406 ft | 196 kts | 117° |
| 2026-05-06 21:20 | 44.56258 | 11.21308 | 1149 ft | 183 kts | 117° |
| 2026-05-06 21:20 | 44.55710 | 11.22835 | 926 ft | 164 kts | 117° |
| 2026-05-06 21:20 | 44.55230 | 11.24173 | 688 ft | 146 kts | 117° |
| 2026-05-06 21:20 | 44.54796 | 11.25424 | 504 ft | 141 kts | 117° |
| 2026-05-06 21:21 | 44.54354 | 11.26631 | 280 ft | 139 kts | 119° |
| 2026-05-06 21:21 | 44.53914 | 11.27834 | 132 ft | 138 kts | 113° |
| 2026-05-06 21:21 | 44.53547 | 11.28844 | 125 ft | 78 kts | 116° |
| 2026-05-06 21:21 | 44.53376 | 11.29331 | 125 ft | 50 kts | 116° |
| 2026-05-06 21:22 | 44.53233 | 11.29616 | 128 ft | 17 kts | 166° |
| 2026-05-06 21:22 | 44.53153 | 11.29690 | 127 ft | 14 kts | 145° |
| 2026-05-06 21:22 | 44.53068 | 11.29773 | 126 ft | 17 kts | 147° |
| 2026-05-06 21:22 | 44.53023 | 11.29767 | 125 ft | 5 kts | 282° |
| 2026-05-06 21:23 | 44.53041 | 11.29717 | 124 ft | 7 kts | 296° |
| 2026-05-06 21:23 | 44.53065 | 11.29648 | 124 ft | 9 kts | 296° |
| 2026-05-06 21:23 | 44.53095 | 11.29560 | 123 ft | 11 kts | 295° |
| 2026-05-06 21:23 | 44.53132 | 11.29455 | 127 ft | 13 kts | 297° |
| 2026-05-06 21:24 | 44.53176 | 11.29331 | 126 ft | 15 kts | 297° |
| 2026-05-06 21:24 | 44.53208 | 11.29244 | 127 ft | 10 kts | 297° |
| 2026-05-06 21:24 | 44.53245 | 11.29145 | 126 ft | 13 kts | 297° |
| 2026-05-06 21:24 | 44.53287 | 11.29025 | 125 ft | 15 kts | 296° |
| 2026-05-06 21:25 | 44.53336 | 11.28885 | 127 ft | 17 kts | 296° |
| 2026-05-06 21:25 | 44.53387 | 11.28744 | 125 ft | 16 kts | 297° |
| 2026-05-06 21:25 | 44.53422 | 11.28644 | 124 ft | 8 kts | 296° |
| 2026-05-06 21:25 | 44.53449 | 11.28566 | 125 ft | 10 kts | 296° |
| 2026-05-06 21:26 | 44.53482 | 11.28470 | 125 ft | 12 kts | 295° |
| 2026-05-06 21:26 | 44.53508 | 11.28399 | 123 ft | 9 kts | 298° |
| 2026-05-06 21:26 | 44.53525 | 11.28314 | 127 ft | 9 kts | 235° |
| 2026-05-06 21:26 | 44.53496 | 11.28329 | 126 ft | 5 kts | 139° |
| 2026-05-06 21:27 | 44.53473 | 11.28383 | 125 ft | 8 kts | 118° |
| 2026-05-06 21:27 | 44.53431 | 11.28399 | 125 ft | 6 kts | 201° |
| 2026-05-06 21:27 | 44.53409 | 11.28385 | 122 ft | 0 kts | 208° |